sensor_id;sensor_type;location;lat;lon;timestamp;pressure;altitude;pressure_sealevel;temperature;humidity
60015;BME280;45867;52.480;6.056;2023-04-23T00:00:28;100726.25;;;6.32;100.00
60015;BME280;45867;52.480;6.056;2023-04-23T00:02:56;100724.19;;;6.34;100.00
60015;BME280;45867;52.480;6.056;2023-04-23T00:05:26;100729.84;;;6.43;100.00
60015;BME280;45867;52.480;6.056;2023-04-23T00:07:53;100730.47;;;6.50;100.00
60015;BME280;45867;52.480;6.056;2023-04-23T00:10:18;100719.78;;;6.57;100.00
60015;BME280;45867;52.480;6.056;2023-04-23T00:12:44;100716.66;;;6.60;100.00
60015;BME280;45867;52.480;6.056;2023-04-23T00:15:10;100725.09;;;6.62;100.00
60015;BME280;45867;52.480;6.056;2023-04-23T00:17:36;100718.66;;;6.53;100.00
60015;BME280;45867;52.480;6.056;2023-04-23T00:20:01;100705.44;;;6.48;100.00
60015;BME280;45867;52.480;6.056;2023-04-23T00:22:27;100701.59;;;6.55;100.00
60015;BME280;45867;52.480;6.056;2023-04-23T00:24:52;100712.72;;;6.62;100.00
60015;BME280;45867;52.480;6.056;2023-04-23T00:27:17;100703.91;;;6.52;100.00
60015;BME280;45867;52.480;6.056;2023-04-23T00:29:45;100702.63;;;6.54;100.00
60015;BME280;45867;52.480;6.056;2023-04-23T00:32:10;100722.97;;;6.59;100.00
60015;BME280;45867;52.480;6.056;2023-04-23T00:34:36;100720.81;;;6.56;100.00
60015;BME280;45867;52.480;6.056;2023-04-23T00:37:04;100695.13;;;6.46;100.00
60015;BME280;45867;52.480;6.056;2023-04-23T00:39:31;100687.31;;;6.51;100.00
60015;BME280;45867;52.480;6.056;2023-04-23T00:41:59;100685.16;;;6.48;100.00
60015;BME280;45867;52.480;6.056;2023-04-23T00:44:31;100704.63;;;6.47;100.00
60015;BME280;45867;52.480;6.056;2023-04-23T00:47:08;100675.03;;;6.40;100.00
60015;BME280;45867;52.480;6.056;2023-04-23T00:49:36;100676.09;;;6.39;100.00
60015;BME280;45867;52.480;6.056;2023-04-23T00:52:12;100673.53;;;6.44;100.00
60015;BME280;45867;52.480;6.056;2023-04-23T00:54:38;100667.22;;;6.45;100.00
60015;BME280;45867;52.480;6.056;2023-04-23T00:57:03;100658.22;;;6.41;100.00
60015;BME280;45867;52.480;6.056;2023-04-23T00:59:30;100670.16;;;6.49;100.00
60015;BME280;45867;52.480;6.056;2023-04-23T01:01:55;100671.06;;;6.37;100.00
60015;BME280;45867;52.480;6.056;2023-04-23T01:04:23;100672.69;;;6.38;100.00
60015;BME280;45867;52.480;6.056;2023-04-23T01:06:52;100687.16;;;6.41;100.00
60015;BME280;45867;52.480;6.056;2023-04-23T01:09:18;100670.91;;;6.27;100.00
60015;BME280;45867;52.480;6.056;2023-04-23T01:11:43;100662.63;;;6.18;100.00
60015;BME280;45867;52.480;6.056;2023-04-23T01:14:12;100663.28;;;6.26;100.00
60015;BME280;45867;52.480;6.056;2023-04-23T01:16:40;100666.13;;;6.24;100.00
60015;BME280;45867;52.480;6.056;2023-04-23T01:19:06;100647.50;;;6.09;100.00
60015;BME280;45867;52.480;6.056;2023-04-23T01:21:36;100659.59;;;6.10;100.00
60015;BME280;45867;52.480;6.056;2023-04-23T01:24:03;100650.03;;;5.87;100.00
60015;BME280;45867;52.480;6.056;2023-04-23T01:26:29;100653.84;;;5.79;100.00
60015;BME280;45867;52.480;6.056;2023-04-23T01:28:54;100652.41;;;5.71;100.00
60015;BME280;45867;52.480;6.056;2023-04-23T01:31:20;100648.00;;;5.60;100.00
60015;BME280;45867;52.480;6.056;2023-04-23T01:33:48;100666.41;;;5.60;100.00
60015;BME280;45867;52.480;6.056;2023-04-23T01:36:15;100671.09;;;5.58;100.00
60015;BME280;45867;52.480;6.056;2023-04-23T01:38:40;100649.94;;;5.36;100.00
60015;BME280;45867;52.480;6.056;2023-04-23T01:41:06;100674.00;;;5.45;100.00
60015;BME280;45867;52.480;6.056;2023-04-23T01:43:32;100654.00;;;5.27;100.00
60015;BME280;45867;52.480;6.056;2023-04-23T01:45:58;100653.50;;;5.30;100.00
60015;BME280;45867;52.480;6.056;2023-04-23T01:48:24;100660.69;;;5.34;100.00
60015;BME280;45867;52.480;6.056;2023-04-23T01:50:53;100653.03;;;5.33;100.00
60015;BME280;45867;52.480;6.056;2023-04-23T01:53:21;100646.66;;;5.29;100.00
60015;BME280;45867;52.480;6.056;2023-04-23T01:55:47;100628.81;;;5.31;100.00
60015;BME280;45867;52.480;6.056;2023-04-23T01:58:15;100627.66;;;5.39;100.00
60015;BME280;45867;52.480;6.056;2023-04-23T02:00:41;100631.97;;;5.45;100.00
60015;BME280;45867;52.480;6.056;2023-04-23T02:03:06;100645.59;;;5.59;100.00
60015;BME280;45867;52.480;6.056;2023-04-23T02:05:34;100646.25;;;5.66;100.00
60015;BME280;45867;52.480;6.056;2023-04-23T02:08:00;100624.91;;;5.62;100.00
60015;BME280;45867;52.480;6.056;2023-04-23T02:10:26;100640.13;;;5.77;100.00
60015;BME280;45867;52.480;6.056;2023-04-23T02:12:52;100612.16;;;5.71;100.00
60015;BME280;45867;52.480;6.056;2023-04-23T02:15:20;100630.47;;;5.83;100.00
60015;BME280;45867;52.480;6.056;2023-04-23T02:17:45;100604.59;;;5.74;100.00
60015;BME280;45867;52.480;6.056;2023-04-23T02:20:15;100620.63;;;5.90;100.00
60015;BME280;45867;52.480;6.056;2023-04-23T02:22:44;100604.50;;;5.86;100.00
60015;BME280;45867;52.480;6.056;2023-04-23T02:25:18;100609.63;;;5.93;100.00
60015;BME280;45867;52.480;6.056;2023-04-23T02:28:09;100626.13;;;6.05;100.00
60015;BME280;45867;52.480;6.056;2023-04-23T02:30:49;100609.47;;;5.99;100.00
60015;BME280;45867;52.480;6.056;2023-04-23T02:33:23;100614.25;;;6.03;100.00
60015;BME280;45867;52.480;6.056;2023-04-23T02:35:50;100612.09;;;5.99;100.00
60015;BME280;45867;52.480;6.056;2023-04-23T02:38:35;100607.88;;;5.98;100.00
60015;BME280;45867;52.480;6.056;2023-04-23T02:41:10;100594.84;;;5.92;100.00
60015;BME280;45867;52.480;6.056;2023-04-23T02:43:36;100590.06;;;5.89;100.00
60015;BME280;45867;52.480;6.056;2023-04-23T02:46:01;100593.53;;;5.89;100.00
60015;BME280;45867;52.480;6.056;2023-04-23T02:48:39;100612.97;;;6.05;100.00
60015;BME280;45867;52.480;6.056;2023-04-23T02:51:07;100601.97;;;6.08;100.00
60015;BME280;45867;52.480;6.056;2023-04-23T02:53:33;100599.88;;;6.10;100.00
60015;BME280;45867;52.480;6.056;2023-04-23T02:56:00;100583.50;;;6.03;100.00
60015;BME280;45867;52.480;6.056;2023-04-23T02:58:26;100583.00;;;6.06;100.00
60015;BME280;45867;52.480;6.056;2023-04-23T03:00:52;100586.09;;;6.20;100.00
60015;BME280;45867;52.480;6.056;2023-04-23T03:03:20;100580.28;;;6.18;100.00
60015;BME280;45867;52.480;6.056;2023-04-23T03:05:46;100575.56;;;6.20;100.00
60015;BME280;45867;52.480;6.056;2023-04-23T03:08:11;100578.75;;;6.22;100.00
60015;BME280;45867;52.480;6.056;2023-04-23T03:10:36;100581.75;;;6.31;100.00
60015;BME280;45867;52.480;6.056;2023-04-23T03:13:05;100573.97;;;6.19;100.00
60015;BME280;45867;52.480;6.056;2023-04-23T03:15:30;100578.69;;;6.17;100.00
60015;BME280;45867;52.480;6.056;2023-04-23T03:18:04;100565.75;;;6.15;100.00
60015;BME280;45867;52.480;6.056;2023-04-23T03:20:32;100562.34;;;6.15;100.00
60015;BME280;45867;52.480;6.056;2023-04-23T03:22:58;100549.69;;;6.12;100.00
60015;BME280;45867;52.480;6.056;2023-04-23T03:25:23;100560.50;;;6.15;100.00
60015;BME280;45867;52.480;6.056;2023-04-23T03:27:49;100549.19;;;6.15;100.00
60015;BME280;45867;52.480;6.056;2023-04-23T03:30:15;100545.34;;;6.22;100.00
60015;BME280;45867;52.480;6.056;2023-04-23T03:32:40;100533.63;;;6.13;100.00
60015;BME280;45867;52.480;6.056;2023-04-23T03:35:06;100534.97;;;6.16;100.00
60015;BME280;45867;52.480;6.056;2023-04-23T03:37:33;100555.19;;;6.32;100.00
60015;BME280;45867;52.480;6.056;2023-04-23T03:39:59;100526.38;;;6.20;100.00
60015;BME280;45867;52.480;6.056;2023-04-23T03:42:27;100527.72;;;6.23;100.00
60015;BME280;45867;52.480;6.056;2023-04-23T03:44:53;100519.63;;;6.30;100.00
60015;BME280;45867;52.480;6.056;2023-04-23T03:47:18;100517.31;;;6.33;100.00
60015;BME280;45867;52.480;6.056;2023-04-23T03:49:44;100514.69;;;6.33;100.00
60015;BME280;45867;52.480;6.056;2023-04-23T03:52:14;100512.22;;;6.27;100.00
60015;BME280;45867;52.480;6.056;2023-04-23T03:54:42;100507.88;;;6.37;100.00
60015;BME280;45867;52.480;6.056;2023-04-23T03:57:08;100502.88;;;6.36;100.00
60015;BME280;45867;52.480;6.056;2023-04-23T03:59:34;100498.63;;;6.35;100.00
60015;BME280;45867;52.480;6.056;2023-04-23T04:02:00;100511.44;;;6.48;100.00
60015;BME280;45867;52.480;6.056;2023-04-23T04:04:28;100498.47;;;6.41;100.00
60015;BME280;45867;52.480;6.056;2023-04-23T04:06:53;100489.22;;;6.39;100.00
60015;BME280;45867;52.480;6.056;2023-04-23T04:09:19;100488.72;;;6.42;100.00
60015;BME280;45867;52.480;6.056;2023-04-23T04:11:44;100479.28;;;6.46;100.00
60015;BME280;45867;52.480;6.056;2023-04-23T04:14:10;100482.69;;;6.41;100.00
60015;BME280;45867;52.480;6.056;2023-04-23T04:16:36;100498.56;;;6.52;100.00
60015;BME280;45867;52.480;6.056;2023-04-23T04:19:02;100489.03;;;6.45;100.00
60015;BME280;45867;52.480;6.056;2023-04-23T04:21:27;100485.53;;;6.40;100.00
60015;BME280;45867;52.480;6.056;2023-04-23T04:23:53;100505.50;;;6.58;100.00
60015;BME280;45867;52.480;6.056;2023-04-23T04:26:18;100476.38;;;6.42;100.00
60015;BME280;45867;52.480;6.056;2023-04-23T04:28:44;100484.94;;;6.55;100.00
60015;BME280;45867;52.480;6.056;2023-04-23T04:31:09;100463.75;;;6.44;100.00
60015;BME280;45867;52.480;6.056;2023-04-23T04:33:35;100479.59;;;6.50;100.00
60015;BME280;45867;52.480;6.056;2023-04-23T04:36:03;100465.03;;;6.42;100.00
60015;BME280;45867;52.480;6.056;2023-04-23T04:38:29;100474.56;;;6.48;100.00
60015;BME280;45867;52.480;6.056;2023-04-23T04:40:54;100480.13;;;6.52;100.00
60015;BME280;45867;52.480;6.056;2023-04-23T04:43:23;100470.53;;;6.40;100.00
60015;BME280;45867;52.480;6.056;2023-04-23T04:45:48;100485.84;;;6.43;100.00
60015;BME280;45867;52.480;6.056;2023-04-23T04:48:13;100483.53;;;6.47;100.00
60015;BME280;45867;52.480;6.056;2023-04-23T04:50:39;100493.06;;;6.53;100.00
60015;BME280;45867;52.480;6.056;2023-04-23T04:53:04;100475.13;;;6.50;100.00
60015;BME280;45867;52.480;6.056;2023-04-23T04:55:29;100491.63;;;6.67;100.00
60015;BME280;45867;52.480;6.056;2023-04-23T04:57:55;100469.38;;;6.53;100.00
60015;BME280;45867;52.480;6.056;2023-04-23T05:00:26;100489.19;;;6.61;100.00
60015;BME280;45867;52.480;6.056;2023-04-23T05:02:53;100492.47;;;6.73;100.00
60015;BME280;45867;52.480;6.056;2023-04-23T05:05:20;100513.94;;;6.87;100.00
60015;BME280;45867;52.480;6.056;2023-04-23T05:07:46;100479.81;;;6.70;100.00
60015;BME280;45867;52.480;6.056;2023-04-23T05:10:12;100488.88;;;6.79;100.00
60015;BME280;45867;52.480;6.056;2023-04-23T05:12:58;100483.53;;;6.74;100.00
60015;BME280;45867;52.480;6.056;2023-04-23T05:18:28;100471.06;;;6.64;100.00
60015;BME280;45867;52.480;6.056;2023-04-23T05:21:28;100477.47;;;6.74;100.00
60015;BME280;45867;52.480;6.056;2023-04-23T05:23:54;100498.13;;;6.87;100.00
60015;BME280;45867;52.480;6.056;2023-04-23T05:26:19;100474.81;;;6.74;100.00
60015;BME280;45867;52.480;6.056;2023-04-23T05:32:01;100473.00;;;7.01;100.00
60015;BME280;45867;52.480;6.056;2023-04-23T05:35:05;100484.47;;;7.22;100.00
60015;BME280;45867;52.480;6.056;2023-04-23T05:37:51;100494.81;;;7.29;100.00
60015;BME280;45867;52.480;6.056;2023-04-23T05:40:40;100481.13;;;7.32;100.00
60015;BME280;45867;52.480;6.056;2023-04-23T05:43:43;100465.78;;;7.24;100.00
60015;BME280;45867;52.480;6.056;2023-04-23T05:46:25;100468.00;;;7.37;100.00
60015;BME280;45867;52.480;6.056;2023-04-23T05:48:57;100452.22;;;7.47;100.00
60015;BME280;45867;52.480;6.056;2023-04-23T05:58:06;100444.16;;;8.22;100.00
60015;BME280;45867;52.480;6.056;2023-04-23T06:00:48;100435.00;;;8.50;100.00
60015;BME280;45867;52.480;6.056;2023-04-23T06:03:17;100449.06;;;8.76;100.00
60015;BME280;45867;52.480;6.056;2023-04-23T06:05:43;100449.59;;;8.73;100.00
60015;BME280;45867;52.480;6.056;2023-04-23T06:08:08;100446.69;;;9.00;100.00
60015;BME280;45867;52.480;6.056;2023-04-23T06:10:57;100430.03;;;8.74;100.00
60015;BME280;45867;52.480;6.056;2023-04-23T06:13:58;100422.88;;;8.64;100.00
60015;BME280;45867;52.480;6.056;2023-04-23T06:16:38;100425.53;;;8.54;100.00
60015;BME280;45867;52.480;6.056;2023-04-23T06:19:11;100422.09;;;8.49;100.00
60015;BME280;45867;52.480;6.056;2023-04-23T06:22:05;100420.00;;;8.71;100.00
60015;BME280;45867;52.480;6.056;2023-04-23T06:24:37;100427.94;;;8.81;100.00
60015;BME280;45867;52.480;6.056;2023-04-23T06:27:16;100408.63;;;8.71;100.00
60015;BME280;45867;52.480;6.056;2023-04-23T06:29:54;100419.19;;;8.60;100.00
60015;BME280;45867;52.480;6.056;2023-04-23T06:36:06;100422.31;;;8.42;100.00
60015;BME280;45867;52.480;6.056;2023-04-23T06:39:00;100396.47;;;8.70;100.00
60015;BME280;45867;52.480;6.056;2023-04-23T06:41:39;100396.66;;;9.40;100.00
60015;BME280;45867;52.480;6.056;2023-04-23T06:48:04;100395.63;;;10.89;100.00
60015;BME280;45867;52.480;6.056;2023-04-23T06:54:04;100360.63;;;11.17;100.00
60015;BME280;45867;52.480;6.056;2023-04-23T06:57:08;100367.06;;;11.34;100.00
60015;BME280;45867;52.480;6.056;2023-04-23T06:59:40;100366.22;;;11.39;100.00
60015;BME280;45867;52.480;6.056;2023-04-23T07:03:09;100390.94;;;12.07;100.00
60015;BME280;45867;52.480;6.056;2023-04-23T07:05:44;100383.38;;;12.14;100.00
60015;BME280;45867;52.480;6.056;2023-04-23T07:08:21;100405.13;;;12.16;100.00
60015;BME280;45867;52.480;6.056;2023-04-23T07:11:32;100428.44;;;12.76;100.00
60015;BME280;45867;52.480;6.056;2023-04-23T07:14:25;100424.59;;;13.15;100.00
60015;BME280;45867;52.480;6.056;2023-04-23T07:17:19;100428.53;;;13.50;100.00
60015;BME280;45867;52.480;6.056;2023-04-23T07:20:10;100425.31;;;13.67;100.00
60015;BME280;45867;52.480;6.056;2023-04-23T07:26:20;100443.81;;;13.72;100.00
60015;BME280;45867;52.480;6.056;2023-04-23T07:29:31;100436.72;;;13.95;100.00
60015;BME280;45867;52.480;6.056;2023-04-23T07:32:09;100449.41;;;14.26;100.00
60015;BME280;45867;52.480;6.056;2023-04-23T07:47:27;100464.69;;;15.78;100.00
60015;BME280;45867;52.480;6.056;2023-04-23T07:53:44;100489.50;;;16.35;100.00
60015;BME280;45867;52.480;6.056;2023-04-23T07:56:56;100472.38;;;16.62;100.00
60015;BME280;45867;52.480;6.056;2023-04-23T07:59:28;100466.09;;;16.76;100.00
60015;BME280;45867;52.480;6.056;2023-04-23T08:02:11;100469.25;;;17.89;100.00
60015;BME280;45867;52.480;6.056;2023-04-23T08:05:14;100465.50;;;18.11;100.00
60015;BME280;45867;52.480;6.056;2023-04-23T08:08:02;100487.88;;;18.57;100.00
60015;BME280;45867;52.480;6.056;2023-04-23T08:14:16;100489.50;;;18.08;100.00
60015;BME280;45867;52.480;6.056;2023-04-23T08:17:00;100471.06;;;18.27;100.00
60015;BME280;45867;52.480;6.056;2023-04-23T08:19:33;100480.03;;;17.34;100.00
60015;BME280;45867;52.480;6.056;2023-04-23T08:33:56;100489.16;;;18.81;100.00
60015;BME280;45867;52.480;6.056;2023-04-23T08:41:16;100498.31;;;20.08;100.00
60015;BME280;45867;52.480;6.056;2023-04-23T08:44:33;100533.63;;;19.82;100.00
60015;BME280;45867;52.480;6.056;2023-04-23T08:47:12;100500.41;;;19.41;100.00
60015;BME280;45867;52.480;6.056;2023-04-23T08:49:47;100512.97;;;18.11;100.00
60015;BME280;45867;52.480;6.056;2023-04-23T08:52:32;100495.28;;;19.02;100.00
60015;BME280;45867;52.480;6.056;2023-04-23T08:58:59;100501.59;;;18.14;100.00
60015;BME280;45867;52.480;6.056;2023-04-23T09:05:16;100502.44;;;17.12;100.00
60015;BME280;45867;52.480;6.056;2023-04-23T09:07:48;100502.94;;;19.95;100.00
60015;BME280;45867;52.480;6.056;2023-04-23T09:10:49;100518.56;;;20.42;100.00
60015;BME280;45867;52.480;6.056;2023-04-23T09:14:06;100511.28;;;20.43;100.00
60015;BME280;45867;52.480;6.056;2023-04-23T09:16:37;100523.47;;;21.21;100.00
60015;BME280;45867;52.480;6.056;2023-04-23T09:25:45;100530.72;;;22.47;100.00
60015;BME280;45867;52.480;6.056;2023-04-23T09:31:24;100528.69;;;18.72;100.00
60015;BME280;45867;52.480;6.056;2023-04-23T09:44:49;100544.38;;;20.83;100.00
60015;BME280;45867;52.480;6.056;2023-04-23T09:47:55;100534.53;;;19.86;100.00
60015;BME280;45867;52.480;6.056;2023-04-23T09:50:56;100516.34;;;19.13;100.00
60015;BME280;45867;52.480;6.056;2023-04-23T09:53:25;100510.22;;;21.44;100.00
60015;BME280;45867;52.480;6.056;2023-04-23T09:56:23;100525.50;;;20.43;100.00
60015;BME280;45867;52.480;6.056;2023-04-23T09:59:27;100531.09;;;19.40;100.00
60015;BME280;45867;52.480;6.056;2023-04-23T10:02:14;100536.56;;;19.43;100.00
60015;BME280;45867;52.480;6.056;2023-04-23T10:04:51;100518.00;;;21.17;100.00
60015;BME280;45867;52.480;6.056;2023-04-23T10:07:46;100513.53;;;21.69;99.67
60015;BME280;45867;52.480;6.056;2023-04-23T10:11:08;100510.44;;;20.95;96.02
60015;BME280;45867;52.480;6.056;2023-04-23T10:16:38;100511.00;;;21.60;91.15
60015;BME280;45867;52.480;6.056;2023-04-23T10:19:21;100512.50;;;21.14;92.42
60015;BME280;45867;52.480;6.056;2023-04-23T10:25:20;100511.00;;;18.92;95.52
60015;BME280;45867;52.480;6.056;2023-04-23T10:33:25;100524.88;;;18.73;98.01
60015;BME280;45867;52.480;6.056;2023-04-23T10:36:19;100501.91;;;18.84;95.68
60015;BME280;45867;52.480;6.056;2023-04-23T10:39:06;100517.88;;;18.59;97.10
60015;BME280;45867;52.480;6.056;2023-04-23T10:41:45;100507.13;;;18.17;95.26
60015;BME280;45867;52.480;6.056;2023-04-23T10:48:04;100505.81;;;19.07;88.37
60015;BME280;45867;52.480;6.056;2023-04-23T10:56:39;100493.50;;;21.38;76.19
60015;BME280;45867;52.480;6.056;2023-04-23T10:59:22;100501.16;;;21.84;66.37
60015;BME280;45867;52.480;6.056;2023-04-23T11:02:10;100492.88;;;21.29;61.95
60015;BME280;45867;52.480;6.056;2023-04-23T11:05:07;100487.59;;;20.48;65.73
60015;BME280;45867;52.480;6.056;2023-04-23T11:14:15;100476.56;;;22.98;49.23
60015;BME280;45867;52.480;6.056;2023-04-23T11:16:55;100491.56;;;22.18;53.88
60015;BME280;45867;52.480;6.056;2023-04-23T11:25:39;100482.94;;;20.33;69.41
60015;BME280;45867;52.480;6.056;2023-04-23T11:28:12;100474.44;;;20.18;71.27
60015;BME280;45867;52.480;6.056;2023-04-23T11:30:48;100462.03;;;19.77;63.80
60015;BME280;45867;52.480;6.056;2023-04-23T11:33:25;100483.31;;;19.12;66.31
60015;BME280;45867;52.480;6.056;2023-04-23T11:36:02;100452.22;;;18.78;69.97
60015;BME280;45867;52.480;6.056;2023-04-23T11:38:44;100458.38;;;18.78;75.45
60015;BME280;45867;52.480;6.056;2023-04-23T11:41:23;100463.34;;;18.89;79.22
60015;BME280;45867;52.480;6.056;2023-04-23T11:43:57;100484.59;;;19.27;72.14
60015;BME280;45867;52.480;6.056;2023-04-23T11:47:01;100467.63;;;18.48;78.91
60015;BME280;45867;52.480;6.056;2023-04-23T11:49:49;100454.53;;;18.46;81.34
60015;BME280;45867;52.480;6.056;2023-04-23T12:03:12;100445.91;;;20.54;69.48
60015;BME280;45867;52.480;6.056;2023-04-23T12:08:55;100431.47;;;19.82;66.84
60015;BME280;45867;52.480;6.056;2023-04-23T12:11:45;100409.69;;;19.25;69.60
60015;BME280;45867;52.480;6.056;2023-04-23T12:18:13;100409.03;;;19.65;71.41
60015;BME280;45867;52.480;6.056;2023-04-23T12:25:31;100398.00;;;20.48;56.76
60015;BME280;45867;52.480;6.056;2023-04-23T12:31:59;100391.00;;;20.87;58.99
60015;BME280;45867;52.480;6.056;2023-04-23T12:41:45;100374.22;;;20.50;62.24
60015;BME280;45867;52.480;6.056;2023-04-23T12:44:40;100381.47;;;20.05;57.62
60015;BME280;45867;52.480;6.056;2023-04-23T12:47:30;100363.88;;;19.83;62.83
60015;BME280;45867;52.480;6.056;2023-04-23T12:50:08;100374.56;;;19.43;67.70
60015;BME280;45867;52.480;6.056;2023-04-23T12:53:18;100374.00;;;19.25;68.73
60015;BME280;45867;52.480;6.056;2023-04-23T13:00:00;100369.97;;;19.43;72.91
60015;BME280;45867;52.480;6.056;2023-04-23T13:10:08;100367.47;;;18.89;85.91
60015;BME280;45867;52.480;6.056;2023-04-23T13:13:02;100334.25;;;19.43;84.28
60015;BME280;45867;52.480;6.056;2023-04-23T13:16:02;100354.91;;;19.91;80.11
60015;BME280;45867;52.480;6.056;2023-04-23T13:19:03;100333.28;;;20.00;76.73
60015;BME280;45867;52.480;6.056;2023-04-23T13:21:50;100324.19;;;20.33;72.32
60015;BME280;45867;52.480;6.056;2023-04-23T13:31:40;100307.53;;;22.55;59.55
60015;BME280;45867;52.480;6.056;2023-04-23T13:34:40;100296.84;;;22.85;52.48
60015;BME280;45867;52.480;6.056;2023-04-23T13:41:19;100287.63;;;20.48;67.56
60015;BME280;45867;52.480;6.056;2023-04-23T13:46:44;100307.72;;;19.54;74.36
60015;BME280;45867;52.480;6.056;2023-04-23T13:49:44;100295.66;;;19.88;78.82
60015;BME280;45867;52.480;6.056;2023-04-23T13:53:08;100295.00;;;20.19;77.33
60015;BME280;45867;52.480;6.056;2023-04-23T14:00:05;100284.28;;;19.79;85.54
60015;BME280;45867;52.480;6.056;2023-04-23T14:18:15;100240.16;;;19.15;94.32
60015;BME280;45867;52.480;6.056;2023-04-23T14:21:26;100257.25;;;19.35;92.82
60015;BME280;45867;52.480;6.056;2023-04-23T14:24:43;100245.59;;;19.30;89.69
60015;BME280;45867;52.480;6.056;2023-04-23T14:49:27;100203.34;;;19.03;100.00
60015;BME280;45867;52.480;6.056;2023-04-23T14:53:26;100208.16;;;18.85;100.00
60015;BME280;45867;52.480;6.056;2023-04-23T14:56:35;100187.69;;;18.44;100.00
60015;BME280;45867;52.480;6.056;2023-04-23T15:10:19;100172.53;;;16.00;100.00
60015;BME280;45867;52.480;6.056;2023-04-23T15:16:17;100144.91;;;15.43;100.00
60015;BME280;45867;52.480;6.056;2023-04-23T15:18:46;100139.28;;;15.36;100.00
60015;BME280;45867;52.480;6.056;2023-04-23T15:21:31;100146.47;;;15.18;100.00
60015;BME280;45867;52.480;6.056;2023-04-23T15:27:56;100105.19;;;14.98;100.00
60015;BME280;45867;52.480;6.056;2023-04-23T15:37:24;100076.63;;;15.07;100.00
60015;BME280;45867;52.480;6.056;2023-04-23T15:40:24;100085.41;;;15.17;100.00
60015;BME280;45867;52.480;6.056;2023-04-23T15:43:39;100092.13;;;15.49;100.00
60015;BME280;45867;52.480;6.056;2023-04-23T15:57:25;100105.63;;;15.61;100.00
60015;BME280;45867;52.480;6.056;2023-04-23T16:04:27;100101.41;;;15.17;100.00
60015;BME280;45867;52.480;6.056;2023-04-23T16:07:15;100114.78;;;15.25;100.00
60015;BME280;45867;52.480;6.056;2023-04-23T16:13:24;100127.94;;;15.04;100.00
60015;BME280;45867;52.480;6.056;2023-04-23T16:16:01;100142.69;;;14.84;100.00
60015;BME280;45867;52.480;6.056;2023-04-23T16:18:53;100163.94;;;14.27;100.00
60015;BME280;45867;52.480;6.056;2023-04-23T16:21:51;100159.56;;;13.55;100.00
60015;BME280;45867;52.480;6.056;2023-04-23T16:24:52;100161.50;;;12.77;100.00
60015;BME280;45867;52.480;6.056;2023-04-23T16:28:07;100154.28;;;12.22;100.00
60015;BME280;45867;52.480;6.056;2023-04-23T16:31:04;100164.53;;;12.15;100.00
60015;BME280;45867;52.480;6.056;2023-04-23T16:34:11;100153.56;;;12.03;100.00
60015;BME280;45867;52.480;6.056;2023-04-23T16:36:47;100159.25;;;11.96;100.00
60015;BME280;45867;52.480;6.056;2023-04-23T16:45:46;100145.97;;;11.44;100.00
60015;BME280;45867;52.480;6.056;2023-04-23T16:56:42;100126.91;;;11.23;100.00
60015;BME280;45867;52.480;6.056;2023-04-23T16:59:55;100139.16;;;11.19;100.00
60015;BME280;45867;52.480;6.056;2023-04-23T17:02:49;100140.03;;;11.15;100.00
60015;BME280;45867;52.480;6.056;2023-04-23T17:05:47;100105.59;;;10.91;100.00
60015;BME280;45867;52.480;6.056;2023-04-23T17:08:23;100103.75;;;10.91;100.00
60015;BME280;45867;52.480;6.056;2023-04-23T17:14:03;100082.06;;;10.89;100.00
60015;BME280;45867;52.480;6.056;2023-04-23T17:16:34;100066.22;;;10.84;100.00
60015;BME280;45867;52.480;6.056;2023-04-23T17:19:05;100052.81;;;10.75;100.00
60015;BME280;45867;52.480;6.056;2023-04-23T17:25:22;100047.16;;;10.82;100.00
60015;BME280;45867;52.480;6.056;2023-04-23T17:35:25;100012.91;;;10.66;100.00
60015;BME280;45867;52.480;6.056;2023-04-23T17:38:25;99984.19;;;10.55;100.00
60015;BME280;45867;52.480;6.056;2023-04-23T17:41:22;99968.44;;;10.63;100.00
60015;BME280;45867;52.480;6.056;2023-04-23T17:43:56;99960.22;;;10.65;100.00
60015;BME280;45867;52.480;6.056;2023-04-23T17:47:07;99954.78;;;10.75;100.00
60015;BME280;45867;52.480;6.056;2023-04-23T17:50:08;99939.84;;;10.79;100.00
60015;BME280;45867;52.480;6.056;2023-04-23T17:52:59;99921.09;;;10.76;100.00
60015;BME280;45867;52.480;6.056;2023-04-23T17:56:00;99931.25;;;10.87;100.00
60015;BME280;45867;52.480;6.056;2023-04-23T17:59:06;99912.41;;;10.89;100.00
60015;BME280;45867;52.480;6.056;2023-04-23T18:05:15;99895.06;;;10.97;100.00
60015;BME280;45867;52.480;6.056;2023-04-23T18:11:00;99882.78;;;11.01;100.00
60015;BME280;45867;52.480;6.056;2023-04-23T18:13:40;99877.06;;;10.94;100.00
60015;BME280;45867;52.480;6.056;2023-04-23T18:19:17;99860.69;;;10.92;100.00
60015;BME280;45867;52.480;6.056;2023-04-23T18:21:45;99851.44;;;10.75;100.00
60015;BME280;45867;52.480;6.056;2023-04-23T18:24:11;99848.53;;;10.72;100.00
60015;BME280;45867;52.480;6.056;2023-04-23T18:26:40;99845.03;;;10.76;100.00
60015;BME280;45867;52.480;6.056;2023-04-23T18:29:05;99845.44;;;10.83;100.00
60015;BME280;45867;52.480;6.056;2023-04-23T18:31:42;99818.41;;;10.68;100.00
60015;BME280;45867;52.480;6.056;2023-04-23T18:34:30;99820.88;;;10.64;100.00
60015;BME280;45867;52.480;6.056;2023-04-23T18:37:01;99827.44;;;10.66;100.00
60015;BME280;45867;52.480;6.056;2023-04-23T18:39:39;99822.63;;;10.69;100.00
60015;BME280;45867;52.480;6.056;2023-04-23T18:42:07;99834.50;;;10.71;100.00
60015;BME280;45867;52.480;6.056;2023-04-23T18:44:32;99835.03;;;10.73;100.00
60015;BME280;45867;52.480;6.056;2023-04-23T18:47:01;99820.66;;;10.60;100.00
60015;BME280;45867;52.480;6.056;2023-04-23T18:52:32;99810.63;;;10.57;100.00
60015;BME280;45867;52.480;6.056;2023-04-23T18:54:57;99817.81;;;10.57;100.00